createdAt,value
2023-02-11T07:01:52.679Z,-4.59
2023-02-11T07:04:55.488Z,-4.32
2023-02-11T07:07:57.934Z,-4.39
2023-02-11T07:11:00.956Z,-4.16
2023-02-11T07:14:05.300Z,-4.19
2023-02-11T07:17:09.313Z,-4.17
2023-02-11T07:20:14.520Z,-3.92
2023-02-11T07:23:17.260Z,-4.12
2023-02-11T07:26:23.014Z,-4.15
2023-02-11T07:29:25.733Z,-3.94
2023-02-11T07:32:29.467Z,-3.89
2023-02-11T07:35:31.921Z,-3.90
2023-02-11T07:38:34.467Z,-3.93
2023-02-11T07:41:38.153Z,-3.81
2023-02-11T07:44:41.165Z,-3.80
2023-02-11T07:47:45.806Z,-3.64
2023-02-11T07:50:48.214Z,-3.54
2023-02-11T07:53:51.012Z,-3.18
2023-02-11T07:56:53.490Z,-2.93
2023-02-11T07:59:56.156Z,-2.75
2023-02-11T08:02:59.963Z,-2.48
2023-02-11T08:06:03.732Z,-2.37
2023-02-11T08:09:07.041Z,-2.30
2023-02-11T08:12:09.837Z,-2.17
2023-02-11T08:15:12.340Z,-1.93
2023-02-11T08:18:16.369Z,-1.81
2023-02-11T08:21:18.855Z,-1.54
2023-02-11T08:24:21.654Z,-1.45
2023-02-11T08:27:24.142Z,-1.12
2023-02-11T08:30:27.637Z,-1.38
2023-02-11T08:33:31.442Z,-1.11
2023-02-11T08:36:34.433Z,-0.52
2023-02-11T08:39:36.676Z,-0.71
2023-02-11T08:42:39.359Z,-0.44
2023-02-11T08:45:41.774Z,-0.16
2023-02-11T08:48:46.098Z,-0.59
2023-02-11T08:51:48.326Z,-0.38
2023-02-11T08:54:51.169Z,-0.38
2023-02-11T08:57:59.300Z,-0.37
2023-02-11T09:01:02.143Z,-0.32
2023-02-11T09:04:05.965Z,-0.26
2023-02-11T09:07:08.418Z,-0.14
2023-02-11T09:10:10.804Z,-0.04
2023-02-11T09:13:13.493Z,0.04
2023-02-11T09:16:17.278Z,0.11
2023-02-11T09:19:21.137Z,0.28
2023-02-11T09:22:23.407Z,0.28
2023-02-11T09:25:26.178Z,0.40
2023-02-11T09:28:28.607Z,0.56
2023-02-11T09:31:32.095Z,0.59
2023-02-11T09:34:38.135Z,0.51
2023-02-11T09:37:40.503Z,0.49
2023-02-11T09:40:43.202Z,0.54
2023-02-11T09:43:46.530Z,0.73
2023-02-11T09:46:53.356Z,1.06
2023-02-11T09:50:00.284Z,1.40
2023-02-11T09:53:03.821Z,1.62
2023-02-11T09:56:10.661Z,1.40
2023-02-11T09:59:13.729Z,1.78
2023-02-11T10:02:19.672Z,1.90
2023-02-11T10:05:31.778Z,1.92
2023-02-11T10:08:38.178Z,2.30
2023-02-11T10:11:48.045Z,2.30
2023-02-11T10:15:13.545Z,2.49
2023-02-11T10:18:38.671Z,2.66
2023-02-11T10:21:47.781Z,2.94
2023-02-11T10:24:52.318Z,3.04
2023-02-11T10:27:56.960Z,3.10
2023-02-11T10:31:01.080Z,3.18
2023-02-11T10:34:04.807Z,3.31
2023-02-11T10:37:09.221Z,3.36
2023-02-11T10:40:13.917Z,3.31
2023-02-11T10:43:17.522Z,3.35
2023-02-11T10:46:22.286Z,3.34
2023-02-11T10:49:34.575Z,3.19
2023-02-11T10:52:38.282Z,3.33
2023-02-11T10:55:42.123Z,3.43
2023-02-11T10:58:45.391Z,3.47
2023-02-11T11:01:49.619Z,3.58
2023-02-11T11:04:54.274Z,3.67
2023-02-11T11:07:59.369Z,3.59
2023-02-11T11:11:03.851Z,3.59
2023-02-11T11:14:13.241Z,3.46
2023-02-11T11:17:17.914Z,3.47
2023-02-11T11:20:23.327Z,3.46
2023-02-11T11:23:27.245Z,3.65
2023-02-11T11:26:38.852Z,3.61
2023-02-11T11:29:44.014Z,3.54
2023-02-11T11:32:46.716Z,3.62
2023-02-11T11:35:57.604Z,3.87
2023-02-11T11:39:04.037Z,3.66
2023-02-11T11:42:27.286Z,3.87
2023-02-11T11:45:29.946Z,3.92
2023-02-11T11:48:34.304Z,3.98
2023-02-11T11:51:39.163Z,4.02
2023-02-11T11:54:43.139Z,4.30
2023-02-11T11:57:45.844Z,4.27
2023-02-11T12:00:54.584Z,4.08
2023-02-11T12:04:22.320Z,4.28
2023-02-11T12:07:31.284Z,4.11
2023-02-11T12:10:50.419Z,4.07
2023-02-11T12:14:00.172Z,3.85
2023-02-11T12:17:04.861Z,3.87
2023-02-11T12:20:26.493Z,4.17
2023-02-11T12:23:36.977Z,4.09
2023-02-11T12:26:43.020Z,3.94
2023-02-11T12:29:53.505Z,3.78
2023-02-11T12:32:59.169Z,4.14
2023-02-11T12:36:03.820Z,4.34
2023-02-11T12:39:12.406Z,4.28
2023-02-11T12:42:43.332Z,4.37
2023-02-11T12:46:17.953Z,4.75
2023-02-11T12:49:26.747Z,5.14
2023-02-11T12:52:36.003Z,5.01
2023-02-11T12:55:40.019Z,5.24
2023-02-11T12:58:45.705Z,5.09
2023-02-11T13:01:48.619Z,5.35
2023-02-11T13:04:53.316Z,5.26
2023-02-11T13:07:58.679Z,5.40
2023-02-11T13:11:02.348Z,5.46
2023-02-11T13:14:07.888Z,5.87
2023-02-11T13:17:16.037Z,5.85
2023-02-11T13:20:24.883Z,5.79
2023-02-11T13:23:31.774Z,5.94
2023-02-11T13:26:39.513Z,5.68
2023-02-11T13:30:21.332Z,5.58
2023-02-11T13:33:34.970Z,5.76
2023-02-11T13:36:37.401Z,5.36
2023-02-11T13:39:40.054Z,5.55
2023-02-11T13:42:48.930Z,5.81
2023-02-11T13:45:53.613Z,5.92
2023-02-11T13:48:56.127Z,5.66
2023-02-11T13:51:59.056Z,5.58
2023-02-11T13:55:04.875Z,5.36
2023-02-11T13:58:37.221Z,5.43
2023-02-11T14:01:42.757Z,5.67
2023-02-11T14:05:28.129Z,5.98
2023-02-11T14:08:49.124Z,6.03
2023-02-11T14:11:52.234Z,6.02
2023-02-11T14:15:02.523Z,6.00
2023-02-11T14:18:35.966Z,5.72
2023-02-11T14:21:40.347Z,5.83
2023-02-11T14:24:48.496Z,5.80
2023-02-11T14:27:57.065Z,5.73
2023-02-11T14:31:03.182Z,5.66
2023-02-11T14:34:14.556Z,5.67
2023-02-11T14:37:22.878Z,5.89
2023-02-11T14:40:28.158Z,5.84
2023-02-11T14:43:33.372Z,5.76
2023-02-11T14:46:35.806Z,5.81
2023-02-11T14:49:39.422Z,5.78
2023-02-11T14:52:43.182Z,5.58
2023-02-11T14:55:47.205Z,5.62
2023-02-11T14:58:51.917Z,5.48
2023-02-11T15:01:54.937Z,5.45
2023-02-11T15:05:16.336Z,5.49
2023-02-11T15:08:20.431Z,5.35
2023-02-11T15:11:23.715Z,5.32
2023-02-11T15:14:27.503Z,5.24
2023-02-11T15:17:30.691Z,5.17
2023-02-11T15:20:33.505Z,5.13
2023-02-11T15:23:37.360Z,5.01
2023-02-11T15:26:39.767Z,4.98
2023-02-11T15:29:43.274Z,4.86
2023-02-11T15:32:46.050Z,4.94
